Time;durP1;ratioP1;P1;durP2;ratioP2;P2;SDS_P1;SDS_P2;PMS_P1;PMS_P2;Temp;Humidity;BMP_temperature;BMP_pressure;BME280_temperature;BME280_humidity;BME280_pressure;Samples;Min_cycle;Max_cycle;Signal;HPM_P1;HPM_P2
2021/06/14 00:00:44;;;;;;;0.00;0.00;;;23.90;53.50;;;;;;5055370;28;20131;-66
2021/06/14 00:03:10;;;;;;;0.00;0.00;;;23.90;53.60;;;;;;5055493;28;20485;-66
2021/06/14 00:05:42;;;;;;;0.00;0.00;;;23.80;53.60;;;;;;5055146;28;20558;-66
2021/06/14 00:08:13;;;;;;;0.00;0.00;;;23.80;53.70;;;;;;5055627;28;20080;-66
2021/06/14 00:10:40;;;;;;;0.00;0.00;;;23.80;53.90;;;;;;5054854;28;20526;-67
2021/06/14 00:13:07;;;;;;;0.00;0.00;;;23.80;53.90;;;;;;5055311;28;20186;-66
2021/06/14 00:15:35;;;;;;;0.00;0.00;;;23.70;54.00;;;;;;5054692;28;20400;-66
2021/06/14 00:18:03;;;;;;;0.00;0.00;;;23.70;54.00;;;;;;5054300;28;20133;-66
2021/06/14 00:20:29;;;;;;;0.00;0.00;;;23.70;54.10;;;;;;5048592;28;20496;-66
2021/06/14 00:22:56;;;;;;;0.00;0.00;;;23.60;54.10;;;;;;5055229;28;20133;-66
2021/06/14 00:25:25;;;;;;;0.00;0.00;;;23.60;54.20;;;;;;5054971;28;20045;-66
2021/06/14 00:27:53;;;;;;;0.00;0.00;;;23.60;54.30;;;;;;5055008;28;20056;-66
2021/06/14 00:30:26;;;;;;;0.00;0.00;;;23.60;54.30;;;;;;5054977;28;20049;-66
2021/06/14 00:32:53;;;;;;;0.00;0.00;;;23.60;54.40;;;;;;5054143;28;20037;-66
2021/06/14 00:35:19;;;;;;;0.00;0.00;;;23.50;54.40;;;;;;5055338;28;20495;-66
2021/06/14 00:37:45;;;;;;;0.00;0.00;;;23.50;54.50;;;;;;5054786;28;20607;-66
2021/06/14 00:40:12;;;;;;;0.00;0.00;;;23.50;54.60;;;;;;5054205;28;20076;-66
2021/06/14 00:42:39;;;;;;;0.00;0.00;;;23.50;54.70;;;;;;5054284;28;20045;-66
2021/06/14 00:45:15;;;;;;;0.00;0.00;;;23.40;54.70;;;;;;5054935;28;20826;-66
2021/06/14 00:47:42;;;;;;;0.00;0.00;;;23.40;54.70;;;;;;5054678;28;20186;-66
2021/06/14 00:50:10;;;;;;;0.00;0.00;;;23.40;54.80;;;;;;5039154;28;20554;-66
2021/06/14 00:52:37;;;;;;;0.00;0.00;;;23.40;55.00;;;;;;5035018;28;20136;-66
2021/06/14 00:55:06;;;;;;;0.00;0.00;;;23.40;54.90;;;;;;5045596;28;20178;-66
2021/06/14 00:57:32;;;;;;;0.00;0.00;;;23.30;54.80;;;;;;5034368;28;20094;-66
2021/06/14 00:59:59;;;;;;;0.00;0.00;;;23.30;54.90;;;;;;5050585;28;20539;-66
2021/06/14 01:02:26;;;;;;;0.00;0.00;;;23.30;55.10;;;;;;5054308;28;20098;-66
2021/06/14 01:04:54;;;;;;;0.00;0.00;;;23.30;55.30;;;;;;5054054;28;20041;-66
2021/06/14 01:07:25;;;;;;;0.00;0.00;;;23.20;55.30;;;;;;5054250;28;20489;-66
2021/06/14 01:09:52;;;;;;;0.00;0.00;;;23.20;55.40;;;;;;5054045;28;20111;-66
2021/06/14 01:12:23;;;;;;;0.00;0.00;;;23.20;55.40;;;;;;5054168;28;20128;-66
2021/06/14 01:15:17;;;;;;;0.00;0.00;;;23.20;55.60;;;;;;5052178;28;20056;-66
2021/06/14 01:17:53;;;;;;;0.00;0.00;;;23.10;55.80;;;;;;5049943;28;20049;-66
2021/06/14 01:20:34;;;;;;;0.10;0.00;;;23.10;55.90;;;;;;5026547;28;20085;-66
2021/06/14 01:23:36;;;;;;;0.00;0.00;;;23.00;55.90;;;;;;5053775;28;20044;-66
2021/06/14 01:26:10;;;;;;;0.00;0.00;;;23.10;56.00;;;;;;5049378;28;20067;-66
2021/06/14 01:28:39;;;;;;;0.00;0.00;;;23.00;55.90;;;;;;5054016;28;20090;-66
2021/06/14 01:31:05;;;;;;;0.00;0.00;;;23.00;55.90;;;;;;5053418;28;20084;-67
2021/06/14 01:33:34;;;;;;;0.00;0.00;;;23.00;55.90;;;;;;5053213;28;20421;-66
2021/06/14 01:36:19;;;;;;;0.00;0.00;;;23.00;55.90;;;;;;5053879;28;20150;-66
2021/06/14 01:38:48;;;;;;;0.00;0.00;;;23.00;56.00;;;;;;5053265;28;20041;-66
2021/06/14 01:41:16;;;;;;;0.00;0.00;;;23.00;56.10;;;;;;5053487;28;20408;-66
2021/06/14 01:43:44;;;;;;;0.00;0.00;;;23.00;57.20;;;;;;5052255;28;20045;-66
2021/06/14 01:46:18;;;;;;;0.00;0.00;;;23.00;56.30;;;;;;5053249;28;20560;-66
2021/06/14 01:48:45;;;;;;;0.00;0.00;;;22.90;56.20;;;;;;5053214;28;20556;-66
2021/06/14 01:51:14;;;;;;;0.00;0.00;;;22.90;56.10;;;;;;5051918;28;20485;-66
2021/06/14 01:53:41;;;;;;;0.00;0.00;;;22.90;56.10;;;;;;5053561;28;20131;-66
2021/06/14 01:56:09;;;;;;;0.00;0.00;;;22.90;56.00;;;;;;5053373;28;20053;-66
2021/06/14 01:58:38;;;;;;;0.00;0.00;;;22.90;56.10;;;;;;5053131;28;20064;-67
2021/06/14 02:01:05;;;;;;;0.00;0.00;;;22.90;56.00;;;;;;5035161;28;20067;-66
2021/06/14 02:03:32;;;;;;;0.00;0.00;;;22.90;56.00;;;;;;5053320;28;20496;-66
2021/06/14 02:06:01;;;;;;;0.00;0.00;;;22.90;56.10;;;;;;5052802;28;20095;-66
2021/06/14 02:08:28;;;;;;;0.00;0.00;;;22.90;56.20;;;;;;5053469;28;20080;-66
2021/06/14 02:10:56;;;;;;;0.00;0.00;;;22.90;56.20;;;;;;5052750;28;20071;-66
2021/06/14 02:13:23;;;;;;;0.00;0.00;;;22.80;56.10;;;;;;5051332;28;20128;-66
2021/06/14 02:15:51;;;;;;;0.00;0.00;;;22.80;56.20;;;;;;5053110;28;20056;-66
2021/06/14 02:18:22;;;;;;;0.00;0.00;;;22.80;56.30;;;;;;5049549;28;20041;-66
2021/06/14 02:20:49;;;;;;;0.00;0.00;;;22.70;56.30;;;;;;5041416;28;20067;-66
2021/06/14 02:23:15;;;;;;;0.00;0.00;;;22.80;56.40;;;;;;5052874;28;20068;-66
2021/06/14 02:25:42;;;;;;;0.00;0.00;;;22.70;56.50;;;;;;5052752;28;20045;-66
2021/06/14 02:28:09;;;;;;;0.00;0.00;;;22.70;56.60;;;;;;5052695;28;20098;-65
2021/06/14 02:30:35;;;;;;;0.00;0.00;;;22.70;56.60;;;;;;5052055;28;20128;-66
2021/06/14 02:33:02;;;;;;;0.00;0.00;;;22.70;56.70;;;;;;5052056;28;20052;-66
2021/06/14 02:35:28;;;;;;;0.00;0.00;;;22.60;56.70;;;;;;5052339;28;20053;-66
2021/06/14 02:37:59;;;;;;;0.00;0.00;;;22.60;56.90;;;;;;5052300;28;20128;-66
2021/06/14 02:40:29;;;;;;;0.00;0.00;;;22.60;57.10;;;;;;5038278;28;20053;-66
2021/06/14 02:43:03;;;;;;;0.00;0.00;;;22.50;57.30;;;;;;5052606;28;20060;-66
2021/06/14 02:45:31;;;;;;;0.00;0.00;;;22.50;57.50;;;;;;5052283;28;20040;-66
2021/06/14 02:47:58;;;;;;;0.00;0.00;;;22.50;57.60;;;;;;5052119;28;20045;-65
2021/06/14 02:50:27;;;;;;;0.00;0.00;;;22.40;57.70;;;;;;5052191;28;20079;-65
2021/06/14 02:52:55;;;;;;;0.00;0.00;;;22.40;57.90;;;;;;5051709;28;20516;-65
2021/06/14 02:55:28;;;;;;;0.00;0.00;;;22.40;58.10;;;;;;5051719;28;20130;-65
2021/06/14 02:57:58;;;;;;;0.00;0.00;;;22.30;58.20;;;;;;5052438;28;20090;-65
2021/06/14 03:00:28;;;;;;;;;;;22.40;58.40;;;;;;5052479;28;20049;-65
2021/06/14 03:03:04;;;;;;;0.00;0.00;;;22.30;58.50;;;;;;5052416;28;19958;-65
2021/06/14 03:05:31;;;;;;;0.00;0.00;;;22.30;58.50;;;;;;5051964;28;20044;-65
2021/06/14 03:07:59;;;;;;;0.00;0.00;;;22.20;58.60;;;;;;5052291;28;20045;-66
2021/06/14 03:10:29;;;;;;;0.00;0.00;;;22.30;58.70;;;;;;5052199;28;20049;-66
2021/06/14 03:12:56;;;;;;;0.00;0.00;;;22.20;58.80;;;;;;5051743;28;20190;-65
2021/06/14 03:15:25;;;;;;;0.00;0.00;;;22.20;58.80;;;;;;5052623;28;20045;-66
2021/06/14 03:17:52;;;;;;;0.00;0.00;;;22.20;58.90;;;;;;5051763;28;20492;-66
2021/06/14 03:20:21;;;;;;;0.00;0.00;;;22.20;58.90;;;;;;5040585;28;20441;-66
2021/06/14 03:22:48;;;;;;;0.00;0.00;;;22.10;59.00;;;;;;5051680;28;20416;-66
2021/06/14 03:25:15;;;;;;;0.00;0.00;;;22.10;59.10;;;;;;5052212;28;20178;-66
2021/06/14 03:27:43;;;;;;;0.00;0.00;;;22.10;59.20;;;;;;5052177;28;20045;-66
2021/06/14 03:30:11;;;;;;;0.00;0.00;;;22.10;59.30;;;;;;5051804;28;20056;-65
2021/06/14 03:32:42;;;;;;;0.00;0.00;;;22.10;59.40;;;;;;5051996;28;20055;-65
2021/06/14 03:35:12;;;;;;;0.00;0.00;;;22.00;59.40;;;;;;5050858;28;20061;-65
2021/06/14 03:37:39;;;;;;;0.00;0.00;;;22.00;59.40;;;;;;5050843;28;20132;-66
2021/06/14 03:40:06;;;;;;;0.00;0.00;;;22.00;59.40;;;;;;5051717;28;20052;-65
2021/06/14 03:42:32;;;;;;;0.00;0.00;;;22.00;60.50;;;;;;5051586;28;20045;-66
2021/06/14 03:44:59;;;;;;;0.00;0.00;;;22.00;59.60;;;;;;5051465;28;20053;-66
2021/06/14 03:47:25;;;;;;;0.00;0.00;;;21.90;59.50;;;;;;5051820;28;20067;-66
2021/06/14 03:49:52;;;;;;;0.00;0.00;;;21.90;59.60;;;;;;5051729;28;20117;-66
2021/06/14 03:52:18;;;;;;;0.00;0.00;;;21.90;59.80;;;;;;5051671;28;20504;-66
2021/06/14 03:54:45;;;;;;;0.00;0.00;;;21.90;59.90;;;;;;5052061;28;20049;-66
2021/06/14 03:57:11;;;;;;;0.00;0.00;;;21.90;60.00;;;;;;5051829;28;20045;-66
2021/06/14 03:59:37;;;;;;;0.00;0.00;;;21.80;59.90;;;;;;5051513;28;20198;-65
2021/06/14 04:02:04;;;;;;;0.00;0.00;;;21.80;59.90;;;;;;5051530;28;20132;-65
2021/06/14 04:07:08;;;;;;;0.00;0.00;;;21.80;60.10;;;;;;5052341;28;20091;-65
2021/06/14 04:09:36;;;;;;;0.00;0.00;;;21.80;60.30;;;;;;5055663;28;20041;-66
2021/06/14 04:12:03;;;;;;;0.00;0.00;;;21.80;60.30;;;;;;5055253;28;20136;-66
2021/06/14 04:14:30;;;;;;;0.00;0.00;;;21.70;60.20;;;;;;5054866;28;20053;-65
2021/06/14 04:16:56;;;;;;;0.10;0.00;;;21.70;60.20;;;;;;5054932;28;20469;-65
2021/06/14 04:19:23;;;;;;;0.00;0.00;;;21.70;60.30;;;;;;5043704;28;20140;-65
2021/06/14 04:21:49;;;;;;;0.00;0.00;;;21.70;60.20;;;;;;5054878;28;20056;-65
2021/06/14 04:24:15;;;;;;;0.00;0.00;;;21.70;60.10;;;;;;5054540;28;20078;-65
2021/06/14 04:26:41;;;;;;;0.00;0.00;;;21.60;60.00;;;;;;5055073;28;20048;-65
2021/06/14 04:29:08;;;;;;;0.00;0.00;;;21.70;60.10;;;;;;5055122;28;20215;-65
2021/06/14 04:31:34;;;;;;;0.00;0.00;;;21.60;60.00;;;;;;5054624;28;20098;-65
2021/06/14 04:34:00;;;;;;;0.00;0.00;;;21.70;60.10;;;;;;5054823;28;20552;-65
2021/06/14 04:36:27;;;;;;;0.00;0.00;;;21.60;60.10;;;;;;5054331;28;20094;-65
2021/06/14 04:38:53;;;;;;;0.00;0.00;;;21.70;60.20;;;;;;5054503;28;20381;-65
2021/06/14 04:41:19;;;;;;;0.00;0.00;;;21.70;60.10;;;;;;5054654;28;20053;-65
2021/06/14 04:43:46;;;;;;;0.00;0.00;;;21.70;60.20;;;;;;5054714;28;20049;-65
2021/06/14 04:46:12;;;;;;;0.00;0.00;;;21.60;60.20;;;;;;5054508;28;20124;-66
2021/06/14 04:48:38;;;;;;;0.00;0.00;;;21.70;60.20;;;;;;5054456;28;20511;-65
2021/06/14 04:51:05;;;;;;;0.00;0.00;;;21.70;60.20;;;;;;5054563;28;20056;-65
2021/06/14 04:53:31;;;;;;;0.00;0.00;;;21.60;60.20;;;;;;5054348;28;20057;-65
2021/06/14 04:55:58;;;;;;;0.00;0.00;;;21.70;60.30;;;;;;5054512;28;20358;-65
2021/06/14 04:58:24;;;;;;;0.00;0.00;;;21.60;60.20;;;;;;5054182;28;20090;-65
2021/06/14 05:00:50;;;;;;;0.00;0.00;;;21.60;60.20;;;;;;5044042;28;20116;-65
2021/06/14 05:03:17;;;;;;;0.00;0.00;;;21.60;60.30;;;;;;5049844;28;20094;-65
2021/06/14 05:05:43;;;;;;;0.00;0.00;;;21.60;60.30;;;;;;5042404;28;20128;-65
2021/06/14 05:08:09;;;;;;;0.00;0.00;;;21.70;60.40;;;;;;5037382;28;20099;-65
2021/06/14 05:10:36;;;;;;;0.00;0.00;;;21.60;60.40;;;;;;5032543;28;20041;-65
2021/06/14 05:13:02;;;;;;;0.00;0.00;;;21.60;60.30;;;;;;5045397;28;20049;-65
2021/06/14 05:15:28;;;;;;;0.00;0.00;;;21.60;60.40;;;;;;5044518;28;20128;-65
2021/06/14 05:17:55;;;;;;;0.00;0.00;;;21.60;60.30;;;;;;5043787;28;20131;-65
2021/06/14 05:20:21;;;;;;;0.00;0.00;;;21.70;60.50;;;;;;5036535;28;20044;-65
2021/06/14 05:22:47;;;;;;;0.00;0.00;;;21.60;60.50;;;;;;5035232;28;20041;-66
2021/06/14 05:25:14;;;;;;;0.00;0.00;;;21.60;60.50;;;;;;5044482;28;20041;-65
2021/06/14 05:27:41;;;;;;;0.00;0.00;;;21.70;60.40;;;;;;5044879;28;20044;-65
2021/06/14 05:30:08;;;;;;;0.00;0.00;;;21.70;60.40;;;;;;5025365;28;20124;-66
2021/06/14 05:32:34;;;;;;;0.00;0.00;;;21.70;60.50;;;;;;5017768;28;20133;-66
2021/06/14 05:35:00;;;;;;;0.00;0.00;;;21.70;60.40;;;;;;5017177;28;20191;-66
2021/06/14 05:37:26;;;;;;;0.00;0.00;;;21.70;60.50;;;;;;5013936;28;20042;-67
2021/06/14 05:39:53;;;;;;;0.10;0.00;;;21.80;60.50;;;;;;5013759;28;20132;-66
2021/06/14 05:42:19;;;;;;;0.00;0.00;;;21.80;60.40;;;;;;5017889;28;20042;-67
2021/06/14 05:44:45;;;;;;;0.00;0.00;;;21.80;60.90;;;;;;5024495;28;20121;-66
2021/06/14 05:47:12;;;;;;;0.00;0.00;;;21.80;60.30;;;;;;5020715;28;20042;-67
2021/06/14 05:49:38;;;;;;;0.00;0.00;;;21.80;60.20;;;;;;5027139;28;20046;-67
2021/06/14 05:52:04;;;;;;;0.00;0.00;;;21.90;60.20;;;;;;5018335;28;20642;-66
2021/06/14 05:54:31;;;;;;;0.00;0.00;;;21.90;60.20;;;;;;5022076;28;20057;-66
2021/06/14 05:56:57;;;;;;;0.00;0.00;;;21.90;60.00;;;;;;5032564;28;20580;-66
2021/06/14 05:59:23;;;;;;;0.00;0.00;;;22.00;59.90;;;;;;5030283;28;20532;-66
2021/06/14 06:01:50;;;;;;;0.00;0.00;;;22.00;59.90;;;;;;5018010;28;20086;-66
2021/06/14 06:04:17;;;;;;;0.00;0.00;;;22.00;59.80;;;;;;5019721;28;20041;-66
2021/06/14 06:06:43;;;;;;;0.00;0.00;;;22.10;59.50;;;;;;5025529;28;20128;-66
2021/06/14 06:09:10;;;;;;;0.00;0.00;;;22.10;59.40;;;;;;5026259;28;20182;-66
2021/06/14 06:11:36;;;;;;;0.00;0.00;;;22.20;59.30;;;;;;5017317;28;20065;-66
2021/06/14 06:14:03;;;;;;;0.00;0.00;;;22.20;59.20;;;;;;5022219;28;20145;-66
2021/06/14 06:16:30;;;;;;;0.00;0.00;;;22.20;58.90;;;;;;5026859;28;20084;-66
2021/06/14 06:18:56;;;;;;;0.00;0.00;;;22.30;59.00;;;;;;5033402;28;20546;-67
2021/06/14 06:21:22;;;;;;;0.00;0.00;;;22.30;58.60;;;;;;5033554;28;20175;-67
2021/06/14 06:23:49;;;;;;;0.00;0.00;;;22.40;58.50;;;;;;5026671;28;20521;-65
2021/06/14 06:26:15;;;;;;;0.00;0.00;;;22.40;57.70;;;;;;5042132;28;20064;-66
2021/06/14 06:28:42;;;;;;;0.00;0.00;;;22.40;57.10;;;;;;5049054;28;20098;-66
2021/06/14 06:31:08;;;;;;;0.00;0.00;;;22.50;57.00;;;;;;5045756;28;20132;-67
2021/06/14 06:33:35;;;;;;;0.00;0.00;;;22.40;56.90;;;;;;5042740;28;20053;-67
2021/06/14 06:36:02;;;;;;;0.00;0.00;;;22.50;56.90;;;;;;5041067;28;20046;-67
2021/06/14 06:38:28;;;;;;;0.00;0.00;;;22.50;56.70;;;;;;5034513;28;20167;-69
2021/06/14 06:40:55;;;;;;;0.00;0.00;;;22.50;56.60;;;;;;5035962;28;20049;-66
2021/06/14 06:43:21;;;;;;;0.00;0.00;;;22.60;56.40;;;;;;5033992;28;20561;-66
2021/06/14 06:45:47;;;;;;;0.00;0.00;;;22.60;56.10;;;;;;5033016;28;20140;-66
2021/06/14 06:48:14;;;;;;;0.00;0.00;;;22.60;55.90;;;;;;5035419;28;20042;-66
2021/06/14 06:50:40;;;;;;;0.25;0.00;;;22.60;55.50;;;;;;5041563;28;20180;-64
2021/06/14 06:53:07;;;;;;;0.00;0.00;;;22.60;55.30;;;;;;5039116;28;20064;-65
2021/06/14 06:55:33;;;;;;;0.00;0.00;;;22.70;55.30;;;;;;5037067;28;20049;-64
2021/06/14 06:58:00;;;;;;;0.00;0.00;;;22.70;55.40;;;;;;5039604;28;20171;-63
2021/06/14 07:00:26;;;;;;;0.00;0.00;;;22.80;55.60;;;;;;5035395;28;20053;-64
2021/06/14 07:02:52;;;;;;;0.05;0.00;;;22.80;55.70;;;;;;5039938;28;20049;-63
2021/06/14 07:05:19;;;;;;;0.00;0.00;;;22.90;55.40;;;;;;5049878;28;20052;-63
2021/06/14 07:07:45;;;;;;;0.00;0.00;;;22.90;55.00;;;;;;5044429;28;20407;-64
2021/06/14 07:10:12;;;;;;;0.00;0.00;;;22.90;55.20;;;;;;5021831;28;20088;-64
2021/06/14 07:12:39;;;;;;;0.20;0.00;;;23.00;55.30;;;;;;5025849;28;20045;-63
2021/06/14 07:15:13;;;;;;;0.00;0.00;;;23.10;54.90;;;;;;5018986;28;20073;-64
2021/06/14 07:17:42;;;;;;;0.00;0.00;;;23.20;54.60;;;;;;5024697;28;20124;-63
2021/06/14 07:20:10;;;;;;;0.05;0.00;;;23.30;54.40;;;;;;5036760;28;20040;-63
2021/06/14 07:22:37;;;;;;;0.00;0.00;;;23.40;53.80;;;;;;5036920;28;20048;-64
2021/06/14 07:25:06;;;;;;;0.00;0.00;;;23.50;53.60;;;;;;5048696;28;20041;-63
2021/06/14 07:27:33;;;;;;;0.00;0.00;;;23.60;53.40;;;;;;5039900;28;20041;-64
2021/06/14 07:30:01;;;;;;;0.00;0.00;;;23.70;52.80;;;;;;5035491;28;20041;-63
2021/06/14 07:32:28;;;;;;;0.00;0.00;;;23.70;51.40;;;;;;5021368;28;20057;-63
2021/06/14 07:34:54;;;;;;;0.00;0.00;;;23.80;50.30;;;;;;5032278;28;20068;-63
2021/06/14 07:37:21;;;;;;;0.43;0.00;;;23.80;49.90;;;;;;5044741;28;20080;-70
2021/06/14 07:39:47;;;;;;;0.00;0.00;;;23.90;49.60;;;;;;5039981;28;20124;-63
2021/06/14 07:42:14;;;;;;;0.00;0.00;;;23.90;50.00;;;;;;5037199;28;20533;-63
2021/06/14 07:44:40;;;;;;;0.00;0.00;;;24.00;49.40;;;;;;5034440;28;20053;-63
2021/06/14 07:47:06;;;;;;;0.00;0.00;;;24.10;49.70;;;;;;5041718;28;20123;-63
2021/06/14 07:49:35;;;;;;;0.00;0.00;;;24.30;49.80;;;;;;5051497;28;20048;-64
2021/06/14 07:52:03;;;;;;;0.00;0.00;;;24.40;49.60;;;;;;5049759;28;20045;-63
2021/06/14 07:54:29;;;;;;;0.00;0.00;;;24.50;49.30;;;;;;5042389;28;20077;-63
2021/06/14 07:56:56;;;;;;;0.00;0.00;;;24.60;48.00;;;;;;5033201;28;20063;-63
2021/06/14 07:59:22;;;;;;;0.00;0.00;;;24.70;47.30;;;;;;5036722;28;20569;-63
2021/06/14 08:01:49;;;;;;;0.00;0.00;;;24.80;46.20;;;;;;5033017;28;20267;-64
2021/06/14 08:04:15;;;;;;;0.00;0.00;;;24.80;45.50;;;;;;5043777;28;20128;-63
2021/06/14 08:06:41;;;;;;;0.10;0.10;;;24.90;45.40;;;;;;5041462;28;20045;-63
2021/06/14 08:09:10;;;;;;;0.20;0.05;;;25.00;45.20;;;;;;5035567;28;20575;-63
2021/06/14 08:11:37;;;;;;;0.10;0.00;;;25.10;45.20;;;;;;5035639;28;20175;-64
2021/06/14 08:14:05;;;;;;;0.00;0.00;;;25.20;45.20;;;;;;5028095;28;20524;-64
2021/06/14 08:16:39;;;;;;;0.00;0.00;;;25.40;45.00;;;;;;5033136;28;20136;-65
2021/06/14 08:19:57;;;;;;;0.00;0.00;;;25.50;45.00;;;;;;5034416;28;20053;-64
2021/06/14 08:22:11;;;;;;;0.10;0.00;;;25.70;45.20;;;;;;5012896;28;20058;-62
2021/06/14 08:27:22;;;;;;;0.00;0.00;;;26.10;44.80;;;;;;5043846;28;20128;-64
2021/06/14 08:29:50;;;;;;;0.00;0.00;;;26.30;44.70;;;;;;5049144;28;20053;-64
2021/06/14 08:32:17;;;;;;;0.00;0.00;;;26.40;44.30;;;;;;5047203;28;20198;-64
2021/06/14 08:34:44;;;;;;;0.08;0.00;;;26.50;44.30;;;;;;5046681;28;20187;-64
2021/06/14 08:37:10;;;;;;;0.65;0.00;;;26.70;43.90;;;;;;5047439;28;20080;-64
2021/06/14 08:39:39;;;;;;;0.10;0.05;;;26.80;43.90;;;;;;5039485;28;20160;-64
2021/06/14 08:42:05;;;;;;;0.00;0.00;;;27.00;43.40;;;;;;5044921;28;20049;-64
2021/06/14 08:44:33;;;;;;;0.10;0.10;;;27.10;43.30;;;;;;5046760;28;20060;-64
2021/06/14 08:47:03;;;;;;;0.00;0.00;;;27.30;43.00;;;;;;5032557;28;20053;-64
2021/06/14 08:49:29;;;;;;;0.00;0.00;;;27.40;42.70;;;;;;5034273;28;20080;-64
2021/06/14 08:51:59;;;;;;;0.22;0.00;;;27.60;42.50;;;;;;5034704;28;20465;-64
2021/06/14 08:54:26;;;;;;;0.17;0.00;;;27.70;42.10;;;;;;5033875;28;20104;-64
2021/06/14 08:56:52;;;;;;;0.00;0.00;;;27.90;42.20;;;;;;5044398;28;20052;-64
2021/06/14 08:59:18;;;;;;;0.00;0.00;;;28.00;41.90;;;;;;5007132;28;20683;-64
2021/06/14 09:01:45;;;;;;;0.00;0.00;;;28.10;41.80;;;;;;5034291;28;20069;-64
2021/06/14 09:04:11;;;;;;;0.00;0.00;;;28.20;41.70;;;;;;5035839;28;20139;-65
2021/06/14 09:06:37;;;;;;;0.00;0.00;;;28.30;41.50;;;;;;5026191;28;20089;-64
2021/06/14 09:09:09;;;;;;;0.00;0.00;;;28.30;41.30;;;;;;5027182;28;20077;-64
2021/06/14 09:11:46;;;;;;;0.10;0.00;;;28.40;41.10;;;;;;5013840;28;20502;-62
2021/06/14 09:14:17;;;;;;;0.15;0.10;;;28.50;40.90;;;;;;5036084;28;20084;-64
2021/06/14 09:16:44;;;;;;;0.00;0.00;;;28.50;40.70;;;;;;5039140;28;20134;-64
2021/06/14 09:19:41;;;;;;;0.10;0.00;;;28.50;41.00;;;;;;5035113;28;20057;-65
2021/06/14 09:22:23;;;;;;;0.00;0.00;;;28.60;41.30;;;;;;5001905;28;20513;-64
2021/06/14 09:25:03;;;;;;;0.00;0.00;;;28.70;41.40;;;;;;5028754;28;20045;-65
2021/06/14 09:27:40;;;;;;;0.08;0.00;;;28.70;41.30;;;;;;5033618;28;20088;-64
2021/06/14 09:30:20;;;;;;;0.00;0.00;;;28.80;41.30;;;;;;5038057;28;20044;-64
2021/06/14 09:33:02;;;;;;;0.00;0.00;;;28.80;41.30;;;;;;5022023;28;20445;-65
2021/06/14 09:35:37;;;;;;;0.00;0.00;;;28.80;41.10;;;;;;5024315;28;20045;-64
2021/06/14 09:38:08;;;;;;;0.00;0.00;;;28.90;41.00;;;;;;5039284;28;20084;-64
2021/06/14 09:40:41;;;;;;;0.40;0.00;;;28.80;41.50;;;;;;5048753;28;20049;-64
2021/06/14 09:43:21;;;;;;;0.00;0.00;;;28.80;41.90;;;;;;5035856;28;20052;-64
2021/06/14 09:45:47;;;;;;;0.00;0.00;;;28.90;42.10;;;;;;5041279;28;20992;-65
2021/06/14 09:48:22;;;;;;;0.00;0.00;;;28.90;42.40;;;;;;5035298;28;20041;-66
2021/06/14 09:50:50;;;;;;;0.00;0.00;;;29.00;41.90;;;;;;5016640;28;20420;-66
2021/06/14 09:53:19;;;;;;;0.00;0.00;;;29.10;42.00;;;;;;5015096;28;20844;-65
2021/06/14 09:55:47;;;;;;;0.00;0.00;;;29.20;42.10;;;;;;5015065;28;20486;-63
2021/06/14 09:58:22;;;;;;;0.00;0.00;;;29.30;41.80;;;;;;5019699;28;20048;-64
2021/06/14 10:00:54;;;;;;;0.00;0.00;;;29.30;41.30;;;;;;5034323;28;20132;-64
2021/06/14 10:03:23;;;;;;;0.00;0.00;;;29.40;41.20;;;;;;5018928;28;20741;-64
2021/06/14 10:05:52;;;;;;;0.00;0.00;;;29.40;41.00;;;;;;5027211;28;20132;-64
2021/06/14 10:08:30;;;;;;;0.00;0.00;;;29.50;41.00;;;;;;5045193;28;20084;-64
2021/06/14 10:11:07;;;;;;;0.00;0.00;;;29.60;41.00;;;;;;5030308;28;20148;-64
2021/06/14 10:13:34;;;;;;;0.00;0.00;;;29.60;41.10;;;;;;5041311;28;20056;-64
2021/06/14 10:16:11;;;;;;;0.00;0.00;;;29.70;41.00;;;;;;5027546;28;20080;-64
2021/06/14 10:18:41;;;;;;;0.00;0.00;;;29.70;40.20;;;;;;5016576;28;20049;-64
2021/06/14 10:21:23;;;;;;;0.00;0.00;;;29.70;40.10;;;;;;5018641;28;20045;-63
2021/06/14 10:23:55;;;;;;;0.00;0.00;;;29.70;40.00;;;;;;4977082;28;20081;-64
2021/06/14 10:26:24;;;;;;;0.00;0.00;;;29.80;39.80;;;;;;4994449;28;20128;-68
2021/06/14 10:28:50;;;;;;;0.00;0.00;;;30.00;39.30;;;;;;4996422;28;20545;-69
2021/06/14 10:31:18;;;;;;;0.00;0.00;;;30.20;38.10;;;;;;4985236;28;20651;-73
2021/06/14 10:33:47;;;;;;;0.00;0.00;;;30.30;38.00;;;;;;5011363;28;20183;-66
2021/06/14 10:36:14;;;;;;;0.00;0.00;;;30.00;38.70;;;;;;5019670;28;20178;-66
2021/06/14 10:38:46;;;;;;;0.17;0.00;;;29.90;38.90;;;;;;5032513;28;20049;-65
2021/06/14 10:41:13;;;;;;;0.17;0.05;;;29.90;39.00;;;;;;5032376;28;20057;-65
2021/06/14 10:43:40;;;;;;;0.00;0.00;;;29.80;38.50;;;;;;5031722;28;20045;-66
2021/06/14 10:46:11;;;;;;;0.00;0.00;;;29.90;39.20;;;;;;5031905;28;20485;-66
2021/06/14 10:48:39;;;;;;;0.28;0.05;;;29.80;39.20;;;;;;5031678;28;20049;-66
2021/06/14 10:51:16;;;;;;;0.00;0.00;;;29.90;39.80;;;;;;5030580;28;20522;-66
2021/06/14 10:53:43;;;;;;;0.00;0.00;;;29.70;39.60;;;;;;4964834;28;20048;-65
2021/06/14 10:56:14;;;;;;;0.00;0.00;;;29.80;39.00;;;;;;4886588;28;20140;-66
2021/06/14 10:58:43;;;;;;;0.20;0.00;;;29.70;39.00;;;;;;5004449;28;20102;-66
2021/06/14 11:01:15;;;;;;;0.10;0.05;;;29.80;39.40;;;;;;5018252;28;20050;-66
2021/06/14 11:03:46;;;;;;;0.08;0.00;;;29.90;39.20;;;;;;5027793;28;20038;-66
2021/06/14 11:06:24;;;;;;;0.00;0.00;;;30.00;37.10;;;;;;5029578;28;20045;-66
2021/06/14 11:08:59;;;;;;;0.03;0.00;;;30.00;37.20;;;;;;5030871;28;20060;-67
2021/06/14 11:11:26;;;;;;;0.03;0.03;;;30.00;36.70;;;;;;5019421;28;20067;-66
2021/06/14 11:13:53;;;;;;;0.10;0.00;;;29.90;37.40;;;;;;4982614;28;20045;-66
2021/06/14 11:16:20;;;;;;;0.15;0.00;;;29.70;37.50;;;;;;5029790;28;20054;-67
2021/06/14 11:18:53;;;;;;;0.10;0.00;;;29.70;38.70;;;;;;5031643;28;20041;-66
2021/06/14 11:21:21;;;;;;;0.40;0.08;;;29.90;39.30;;;;;;5031588;28;20050;-66
2021/06/14 11:23:49;;;;;;;0.00;0.00;;;30.10;38.20;;;;;;5030011;28;20430;-67
2021/06/14 11:26:27;;;;;;;0.00;0.00;;;30.20;36.80;;;;;;4977464;28;20068;-66
2021/06/14 11:28:54;;;;;;;0.10;0.10;;;30.20;38.10;;;;;;5002227;28;20052;-68
2021/06/14 11:31:36;;;;;;;0.00;0.00;;;30.30;38.40;;;;;;5127142;27;20125;-67
2021/06/14 11:34:03;;;;;;;0.35;0.00;;;30.20;37.90;;;;;;4991045;27;20063;-67
2021/06/14 11:36:32;;;;;;;0.00;0.00;;;30.20;37.30;;;;;;5025474;28;20627;-67
2021/06/14 11:39:11;;;;;;;0.20;0.00;;;30.20;37.50;;;;;;5037649;28;20566;-65
2021/06/14 11:41:37;;;;;;;0.00;0.00;;;30.30;37.70;;;;;;5024743;28;20054;-64
2021/06/14 11:44:29;;;;;;;0.10;0.00;;;30.30;37.70;;;;;;5028639;28;20132;-65
2021/06/14 11:47:17;;;;;;;0.00;0.00;;;30.30;37.60;;;;;;5031421;28;20044;-65
2021/06/14 11:49:45;;;;;;;0.00;0.00;;;30.30;37.80;;;;;;4977779;28;56388;-66
2021/06/14 11:52:21;;;;;;;0.00;0.00;;;30.40;37.60;;;;;;5027042;28;20497;-65
2021/06/14 11:54:53;;;;;;;0.00;0.00;;;30.20;38.50;;;;;;5027663;28;20060;-65
2021/06/14 11:57:29;;;;;;;0.00;0.00;;;30.20;38.60;;;;;;5027787;28;20095;-65
2021/06/14 11:59:56;;;;;;;0.20;0.10;;;30.20;39.00;;;;;;5039469;28;20530;-65
2021/06/14 12:02:24;;;;;;;0.00;0.00;;;30.20;38.20;;;;;;5026431;28;20421;-65
2021/06/14 12:04:59;;;;;;;0.00;0.00;;;30.20;40.00;;;;;;5026602;28;20046;-66
2021/06/14 12:07:39;;;;;;;0.00;0.00;;;30.10;39.40;;;;;;5025900;28;20103;-65
2021/06/14 12:10:11;;;;;;;0.00;0.00;;;30.10;38.90;;;;;;5024806;28;20072;-65
2021/06/14 12:12:38;;;;;;;0.00;0.00;;;30.00;39.20;;;;;;5025852;28;20041;-65
2021/06/14 12:15:07;;;;;;;0.00;0.00;;;30.00;38.60;;;;;;5027166;28;20038;-65
2021/06/14 12:17:37;;;;;;;0.10;0.00;;;30.10;37.90;;;;;;5026517;28;20049;-65
2021/06/14 12:20:08;;;;;;;0.35;0.10;;;30.20;38.80;;;;;;5027023;28;20046;-66
2021/06/14 12:22:35;;;;;;;0.10;0.00;;;30.10;38.00;;;;;;5027402;28;20101;-66
2021/06/14 12:25:12;;;;;;;0.00;0.00;;;30.20;38.00;;;;;;5026903;28;20046;-65
2021/06/14 12:27:40;;;;;;;0.00;0.00;;;30.20;39.20;;;;;;5026915;28;20049;-66
2021/06/14 12:30:11;;;;;;;0.00;0.00;;;30.20;38.70;;;;;;5026469;28;20061;-65
2021/06/14 12:32:39;;;;;;;0.10;0.10;;;30.20;38.80;;;;;;5027165;28;20127;-65
2021/06/14 12:35:08;;;;;;;0.10;0.10;;;30.30;38.40;;;;;;5027432;28;20045;-65
2021/06/14 12:37:35;;;;;;;0.00;0.00;;;30.30;38.60;;;;;;5026929;28;20420;-65
2021/06/14 12:40:09;;;;;;;0.00;0.00;;;30.30;38.80;;;;;;5027389;28;20517;-65
2021/06/14 12:42:36;;;;;;;0.00;0.00;;;30.30;38.50;;;;;;5016259;28;20091;-66
2021/06/14 12:45:02;;;;;;;0.00;0.00;;;30.30;39.10;;;;;;5013856;28;20504;-66
2021/06/14 12:47:30;;;;;;;0.10;0.00;;;30.40;39.10;;;;;;5013303;28;20099;-66
2021/06/14 12:49:58;;;;;;;0.00;0.00;;;30.40;39.60;;;;;;5014804;28;20050;-65
2021/06/14 12:52:27;;;;;;;0.00;0.00;;;30.50;38.80;;;;;;5016746;28;20414;-65
2021/06/14 12:54:53;;;;;;;0.00;0.00;;;30.60;38.30;;;;;;5014020;28;20496;-64
2021/06/14 12:57:24;;;;;;;0.00;0.00;;;30.80;38.40;;;;;;5014759;28;20120;-67
2021/06/14 12:59:52;;;;;;;0.00;0.00;;;30.70;37.90;;;;;;5026300;28;20046;-66
2021/06/14 13:02:19;;;;;;;0.00;0.00;;;30.70;37.50;;;;;;5007908;28;20049;-66